^^
Saratoga-Weather Station Historical Data
Daily Summary for September 26, 2022 Units:  Both    English   Metric
Daily Weekly Monthly Yearly Custom
  High: Low: Average:
Temperature: 59.5 °F /  15.3 °C 45.1 °F /  7.3 °C 50.9 °F /  10.5 °C
Dew Point: 49.1 °F /  9.5 °C 42.1 °F /  5.6 °C 46.2 °F /  7.9 °C
Humidity: 93% 62% 85%
Wind Speed: 10.1mph /  16.3km/h - 2.3mph /  3.7km/h
Wind Gust: 18mph /  29km/h - -
Wind- - WSW
Pressure: 29.9 in /  1012.2 hPa 29.5 in /  998.3 hPa -
Precipitation: 0.31 in /  7.9 mm    
Historical Graphs
 
 
Tabular Data for September 26, 2022
Time Temperature Dew Point Pressure Wind Wind Speed Wind Gust Humidity Rainfall Rate (Hourly) solar
00:04 47.7 °F /  8.7 °C 44.2 °F /  6.8 °C 29.9in /  1012.2hPa Calm   1mph /  1.6km/h 88% 0in /  0.0mm 0 W/m2
00:09 47.7 °F /  8.7 °C 44.1 °F /  6.7 °C 29.9in /  1012.2hPa Calm   2mph /  3.2km/h 87% 0in /  0.0mm 0 W/m2
00:14 48 °F /  8.9 °C 44.4 °F /  6.9 °C 29.9in /  1012.2hPa NW 0.9mph /  1.4km/h 1mph /  1.6km/h 87% 0in /  0.0mm 0 W/m2
00:19 48.4 °F /  9.1 °C 44.4 °F /  6.9 °C 29.9in /  1012.2hPa NW 0.9mph /  1.4km/h 1mph /  1.6km/h 86% 0in /  0.0mm 0 W/m2
00:24 48.4 °F /  9.1 °C 44.4 °F /  6.9 °C 29.9in /  1012.2hPa Calm   2mph /  3.2km/h 86% 0in /  0.0mm 0 W/m2
00:29 48.2 °F /  9 °C 44.2 °F /  6.8 °C 29.9in /  1012.2hPa Calm   1mph /  1.6km/h 86% 0in /  0.0mm 0 W/m2
00:34 48 °F /  8.9 °C 44.1 °F /  6.7 °C 29.9in /  1012.2hPa Calm   2mph /  3.2km/h 86% 0in /  0.0mm 0 W/m2
00:39 47.8 °F /  8.8 °C 43.9 °F /  6.6 °C 29.9in /  1012.2hPa Calm     86% 0in /  0.0mm 0 W/m2
00:44 47.7 °F /  8.7 °C 43.7 °F /  6.5 °C 29.9in /  1011.9hPa Calm     86% 0in /  0.0mm 0 W/m2
00:49 47.3 °F /  8.5 °C 43.3 °F /  6.3 °C 29.9in /  1011.9hPa Calm     86% 0in /  0.0mm 0 W/m2
00:54 46.9 °F /  8.3 °C 43 °F /  6.1 °C 29.9in /  1011.9hPa Calm     86% 0in /  0.0mm 0 W/m2
00:59 46.8 °F /  8.2 °C 43.2 °F /  6.2 °C 29.9in /  1011.9hPa Calm     87% 0in /  0.0mm 0 W/m2
01:04 46.6 °F /  8.1 °C 43 °F /  6.1 °C 29.9in /  1011.9hPa Calm     87% 0in /  0.0mm 0 W/m2
01:09 46.2 °F /  7.9 °C 42.6 °F /  5.9 °C 29.9in /  1011.9hPa Calm     87% 0in /  0.0mm 0 W/m2
01:14 46 °F /  7.8 °C 42.6 °F /  5.9 °C 29.9in /  1011.9hPa Calm     88% 0in /  0.0mm 0 W/m2
01:19 45.9 °F /  7.7 °C 42.4 °F /  5.8 °C 29.9in /  1011.9hPa Calm     88% 0in /  0.0mm 0 W/m2
01:24 45.7 °F /  7.6 °C 42.6 °F /  5.9 °C 29.9in /  1011.9hPa Calm     89% 0in /  0.0mm 0 W/m2
01:29 45.5 °F /  7.5 °C 42.4 °F /  5.8 °C 29.9in /  1011.9hPa Calm     89% 0in /  0.0mm 0 W/m2
01:34 45.3 °F /  7.4 °C 42.3 °F /  5.7 °C 29.9in /  1011.5hPa Calm     89% 0in /  0.0mm 0 W/m2
01:39 45.1 °F /  7.3 °C 42.1 °F /  5.6 °C 29.9in /  1011.5hPa Calm     89% 0in /  0.0mm 0 W/m2
01:44 45.1 °F /  7.3 °C 42.1 °F /  5.6 °C 29.9in /  1011.5hPa Calm     89% 0in /  0.0mm 0 W/m2
01:49 45.1 °F /  7.3 °C 42.4 °F /  5.8 °C 29.9in /  1011.5hPa Calm   1mph /  1.6km/h 90% 0in /  0.0mm 0 W/m2
01:54 45.1 °F /  7.3 °C 42.6 °F /  5.9 °C 29.9in /  1011.5hPa Calm   2mph /  3.2km/h 91% 0in /  0.0mm 0 W/m2
01:59 45.7 °F /  7.6 °C 43.2 °F /  6.2 °C 29.9in /  1011.5hPa WNW 2mph /  3.2km/h 4mph /  6.4km/h 91% 0in /  0.0mm 0 W/m2
02:04 46 °F /  7.8 °C 43.9 °F /  6.6 °C 29.9in /  1011.5hPa WNW 2mph /  3.2km/h 3mph /  4.8km/h 92% 0in /  0.0mm 0 W/m2
02:09 46.9 °F /  8.3 °C 44.8 °F /  7.1 °C 29.9in /  1011.5hPa West 2mph /  3.2km/h 4mph /  6.4km/h 92% 0in /  0.0mm 0 W/m2
02:14 47.7 °F /  8.7 °C 45 °F /  7.2 °C 29.9in /  1011.5hPa NW 0.9mph /  1.4km/h 3mph /  4.8km/h 90% 0in /  0.0mm 0 W/m2
02:19 47.8 °F /  8.8 °C 44.4 °F /  6.9 °C 29.9in /  1011.5hPa NW 0.9mph /  1.4km/h 4mph /  6.4km/h 88% 0in /  0.0mm 0 W/m2
02:24 47.7 °F /  8.7 °C 44.1 °F /  6.7 °C 29.9in /  1011.5hPa WSW 2mph /  3.2km/h 3mph /  4.8km/h 87% 0in /  0.0mm 0 W/m2
02:29 47.1 °F /  8.4 °C 43.7 °F /  6.5 °C 29.9in /  1011.5hPa WSW 2mph /  3.2km/h 2mph /  3.2km/h 88% 0in /  0.0mm 0 W/m2
02:34 46.9 °F /  8.3 °C 43.5 °F /  6.4 °C 29.9in /  1011.2hPa WSW 0.9mph /  1.4km/h 2mph /  3.2km/h 88% 0in /  0.0mm 0 W/m2
02:39 46.9 °F /  8.3 °C 43.5 °F /  6.4 °C 29.9in /  1011.2hPa Calm     88% 0in /  0.0mm 0 W/m2
02:44 46.9 °F /  8.3 °C 43.9 °F /  6.6 °C 29.9in /  1011.2hPa WSW 2mph /  3.2km/h 2mph /  3.2km/h 89% 0in /  0.0mm 0 W/m2
02:49 46.8 °F /  8.2 °C 43.7 °F /  6.5 °C 29.9in /  1011.2hPa WNW 0.9mph /  1.4km/h 2mph /  3.2km/h 89% 0in /  0.0mm 0 W/m2
02:54 47.1 °F /  8.4 °C 44.1 °F /  6.7 °C 29.9in /  1010.8hPa WNW 0.9mph /  1.4km/h 4mph /  6.4km/h 89% 0in /  0.0mm 0 W/m2
02:59 47.5 °F /  8.6 °C 44.1 °F /  6.7 °C 29.9in /  1010.8hPa WNW 0.9mph /  1.4km/h 3mph /  4.8km/h 88% 0in /  0.0mm 0 W/m2
03:04 47.7 °F /  8.7 °C 44.2 °F /  6.8 °C 29.9in /  1010.8hPa WNW 2mph /  3.2km/h 3mph /  4.8km/h 88% 0in /  0.0mm 0 W/m2
03:09 48 °F /  8.9 °C 44.6 °F /  7 °C 29.9in /  1010.8hPa WNW 2mph /  3.2km/h 3mph /  4.8km/h 88% 0in /  0.0mm 0 W/m2
03:14 48.4 °F /  9.1 °C 44.8 °F /  7.1 °C 29.9in /  1010.8hPa West 6mph /  9.7km/h 6mph /  9.7km/h 87% 0in /  0.0mm 0 W/m2
03:19 48.7 °F /  9.3 °C 45 °F /  7.2 °C 29.9in /  1010.8hPa WNW 2mph /  3.2km/h 5mph /  8km/h 87% 0in /  0.0mm 0 W/m2
03:25 49.1 °F /  9.5 °C 45.1 °F /  7.3 °C 29.9in /  1010.8hPa West 6mph /  9.7km/h 6mph /  9.7km/h 86% 0in /  0.0mm 0 W/m2
03:30 49.3 °F /  9.6 °C 45.3 °F /  7.4 °C 29.9in /  1010.8hPa SSW 4mph /  6.4km/h 6mph /  9.7km/h 86% 0in /  0.0mm 0 W/m2
03:35 49.3 °F /  9.6 °C 45 °F /  7.2 °C 29.9in /  1010.8hPa WNW 2mph /  3.2km/h 6mph /  9.7km/h 85% 0in /  0.0mm 0 W/m2
03:40 49.3 °F /  9.6 °C 45 °F /  7.2 °C 29.9in /  1010.8hPa West 2mph /  3.2km/h 3mph /  4.8km/h 85% 0in /  0.0mm 0 W/m2
03:45 49.3 °F /  9.6 °C 45.3 °F /  7.4 °C 29.8in /  1010.5hPa West 2mph /  3.2km/h 6mph /  9.7km/h 86% 0in /  0.0mm 0 W/m2
03:50 48.9 °F /  9.4 °C 45 °F /  7.2 °C 29.8in /  1010.5hPa WSW 0.9mph /  1.4km/h 3mph /  4.8km/h 86% 0in /  0.0mm 0 W/m2
03:55 48.9 °F /  9.4 °C 45 °F /  7.2 °C 29.8in /  1010.5hPa NW 0.9mph /  1.4km/h 1mph /  1.6km/h 86% 0in /  0.0mm 0 W/m2
04:00 48.7 °F /  9.3 °C 44.8 °F /  7.1 °C 29.8in /  1010.5hPa NW 0.9mph /  1.4km/h 3mph /  4.8km/h 86% 0in /  0.0mm 0 W/m2
04:05 48.4 °F /  9.1 °C 44.4 °F /  6.9 °C 29.8in /  1010.5hPa Calm   1mph /  1.6km/h 86% 0in /  0.0mm 0 W/m2
04:10 48 °F /  8.9 °C 44.1 °F /  6.7 °C 29.8in /  1010.5hPa WNW 2mph /  3.2km/h 4mph /  6.4km/h 86% 0in /  0.0mm 0 W/m2
04:15 47.8 °F /  8.8 °C 44.2 °F /  6.8 °C 29.8in /  1010.5hPa Calm   2mph /  3.2km/h 87% 0in /  0.0mm 0 W/m2
04:20 47.7 °F /  8.7 °C 44.1 °F /  6.7 °C 29.8in /  1010.5hPa SW 2mph /  3.2km/h 4mph /  6.4km/h 87% 0in /  0.0mm 0 W/m2
04:25 47.8 °F /  8.8 °C 44.4 °F /  6.9 °C 29.8in /  1010.2hPa WNW 2.9mph /  4.7km/h 7mph /  11.3km/h 88% 0in /  0.0mm 0 W/m2
04:30 47.8 °F /  8.8 °C 44.4 °F /  6.9 °C 29.8in /  1010.2hPa NW 2mph /  3.2km/h 7mph /  11.3km/h 88% 0in /  0.0mm 0 W/m2
04:35 48 °F /  8.9 °C 44.6 °F /  7 °C 29.8in /  1010.2hPa Calm   2mph /  3.2km/h 88% 0in /  0.0mm 0 W/m2
04:40 48 °F /  8.9 °C 44.6 °F /  7 °C 29.8in /  1010.2hPa WNW 0.9mph /  1.4km/h 7mph /  11.3km/h 88% 0in /  0.0mm 0 W/m2
04:45 47.8 °F /  8.8 °C 44.2 °F /  6.8 °C 29.8in /  1010.2hPa Calm   1mph /  1.6km/h 87% 0in /  0.0mm 0 W/m2
04:50 47.5 °F /  8.6 °C 43.9 °F /  6.6 °C 29.8in /  1010.2hPa Calm   2mph /  3.2km/h 87% 0in /  0.0mm 0 W/m2
04:55 47.1 °F /  8.4 °C 43.7 °F /  6.5 °C 29.8in /  1009.8hPa West 2mph /  3.2km/h 4mph /  6.4km/h 88% 0in /  0.0mm 0 W/m2
05:00 47.1 °F /  8.4 °C 44.1 °F /  6.7 °C 29.8in /  1009.8hPa WNW 2mph /  3.2km/h 5mph /  8km/h 89% 0in /  0.0mm 0 W/m2
05:05 47.3 °F /  8.5 °C 44.2 °F /  6.8 °C 29.8in /  1009.8hPa WNW 7mph /  11.3km/h 7mph /  11.3km/h 89% 0in /  0.0mm 0 W/m2
05:10 47.3 °F /  8.5 °C 44.2 °F /  6.8 °C 29.8in /  1009.8hPa WNW 2.9mph /  4.7km/h 7mph /  11.3km/h 89% 0in /  0.0mm 0 W/m2
05:15 47.5 °F /  8.6 °C 44.4 °F /  6.9 °C 29.8in /  1009.8hPa WSW 2.9mph /  4.7km/h 6mph /  9.7km/h 89% 0in /  0.0mm 0 W/m2
05:20 47.3 °F /  8.5 °C 44.2 °F /  6.8 °C 29.8in /  1009.8hPa NW 2.9mph /  4.7km/h 3mph /  4.8km/h 89% 0in /  0.0mm 0 W/m2
05:25 47.1 °F /  8.4 °C 44.1 °F /  6.7 °C 29.8in /  1009.8hPa West 2mph /  3.2km/h 7mph /  11.3km/h 89% 0in /  0.0mm 0 W/m2
05:30 47.1 °F /  8.4 °C 44.1 °F /  6.7 °C 29.8in /  1009.5hPa NW 4mph /  6.4km/h 7mph /  11.3km/h 89% 0in /  0.0mm 0 W/m2
05:35 47.1 °F /  8.4 °C 44.4 °F /  6.9 °C 29.8in /  1009.5hPa West 2.9mph /  4.7km/h 7mph /  11.3km/h 90% 0in /  0.0mm 0 W/m2
05:40 46.9 °F /  8.3 °C 44.2 °F /  6.8 °C 29.8in /  1009.5hPa NW 4mph /  6.4km/h 9mph /  14.5km/h 90% 0in /  0.0mm 0 W/m2
05:45 46.9 °F /  8.3 °C 44.2 °F /  6.8 °C 29.8in /  1009.5hPa WSW 4.9mph /  7.9km/h 5mph /  8km/h 90% 0in /  0.0mm 0 W/m2
05:50 46.9 °F /  8.3 °C 44.2 °F /  6.8 °C 29.8in /  1009.5hPa West 2.9mph /  4.7km/h 6mph /  9.7km/h 90% 0in /  0.0mm 0 W/m2
05:55 46.9 °F /  8.3 °C 44.2 °F /  6.8 °C 29.8in /  1009.5hPa SW 2mph /  3.2km/h 7mph /  11.3km/h 90% 0in /  0.0mm 0 W/m2
06:00 46.9 °F /  8.3 °C 44.2 °F /  6.8 °C 29.8in /  1009.1hPa West 0.9mph /  1.4km/h 6mph /  9.7km/h 90% 0in /  0.0mm 0 W/m2
06:05 46.8 °F /  8.2 °C 44.1 °F /  6.7 °C 29.8in /  1009.1hPa SW 2mph /  3.2km/h 6mph /  9.7km/h 90% 0in /  0.0mm 0 W/m2
06:10 46.9 °F /  8.3 °C 44.2 °F /  6.8 °C 29.8in /  1009.1hPa West 4mph /  6.4km/h 6mph /  9.7km/h 90% 0in /  0.0mm 0 W/m2
06:15 46.9 °F /  8.3 °C 44.2 °F /  6.8 °C 29.8in /  1009.1hPa WNW 0.9mph /  1.4km/h 6mph /  9.7km/h 90% 0in /  0.0mm 0 W/m2
06:20 46.9 °F /  8.3 °C 44.4 °F /  6.9 °C 29.8in /  1009.1hPa West 2mph /  3.2km/h 3mph /  4.8km/h 91% 0in /  0.0mm 0 W/m2
06:25 46.9 °F /  8.3 °C 44.2 °F /  6.8 °C 29.8in /  1008.8hPa West 2mph /  3.2km/h 3mph /  4.8km/h 90% 0in /  0.0mm 0 W/m2
06:30 46.8 °F /  8.2 °C 44.2 °F /  6.8 °C 29.8in /  1008.8hPa WSW 2mph /  3.2km/h 6mph /  9.7km/h 91% 0in /  0.0mm 0 W/m2
06:35 46.8 °F /  8.2 °C 44.2 °F /  6.8 °C 29.8in /  1008.8hPa West 2.9mph /  4.7km/h 6mph /  9.7km/h 91% 0in /  0.0mm 0 W/m2
06:40 46.8 °F /  8.2 °C 44.2 °F /  6.8 °C 29.8in /  1008.8hPa West 4mph /  6.4km/h 4mph /  6.4km/h 91% 0in /  0.0mm 0 W/m2
06:45 46.8 °F /  8.2 °C 44.2 °F /  6.8 °C 29.8in /  1008.5hPa WSW 0.9mph /  1.4km/h 6mph /  9.7km/h 91% 0in /  0.0mm 0 W/m2
06:50 46.8 °F /  8.2 °C 44.2 °F /  6.8 °C 29.8in /  1008.5hPa West 4mph /  6.4km/h 4mph /  6.4km/h 91% 0in /  0.0mm 0 W/m2
06:55 46.8 °F /  8.2 °C 44.2 °F /  6.8 °C 29.8in /  1008.5hPa WSW 0.9mph /  1.4km/h 5mph /  8km/h 91% 0in /  0.0mm 0 W/m2
07:00 46.8 °F /  8.2 °C 44.2 °F /  6.8 °C 29.8in /  1008.5hPa West 2.9mph /  4.7km/h 6mph /  9.7km/h 91% 0in /  0.0mm 0 W/m2
07:05 46.8 °F /  8.2 °C 44.2 °F /  6.8 °C 29.8in /  1008.5hPa WSW 0.9mph /  1.4km/h 2mph /  3.2km/h 91% 0in /  0.0mm 0 W/m2
07:10 46.6 °F /  8.1 °C 44.1 °F /  6.7 °C 29.8in /  1008.1hPa SW 2mph /  3.2km/h 6mph /  9.7km/h 91% 0in /  0.0mm 0 W/m2
07:15 46.8 °F /  8.2 °C 44.6 °F /  7 °C 29.8in /  1008.1hPa ESE 2mph /  3.2km/h 3mph /  4.8km/h 92% 0in /  0.0mm 0 W/m2
07:20 46.8 °F /  8.2 °C 44.6 °F /  7 °C 29.8in /  1008.1hPa Calm   5mph /  8km/h 92% 0in /  0.0mm 5 W/m2
07:25 46.8 °F /  8.2 °C 44.6 °F /  7 °C 29.8in /  1008.1hPa Calm   1mph /  1.6km/h 92% 0in /  0.0mm 7 W/m2
07:30 46.8 °F /  8.2 °C 44.6 °F /  7 °C 29.8in /  1008.1hPa Calm   1mph /  1.6km/h 92% 0in /  0.0mm 9 W/m2
07:35 46.8 °F /  8.2 °C 44.6 °F /  7 °C 29.8in /  1008.1hPa Calm   2mph /  3.2km/h 92% 0in /  0.0mm 11 W/m2
07:40 46.8 °F /  8.2 °C 44.6 °F /  7 °C 29.8in /  1008.1hPa WSW 2mph /  3.2km/h 2mph /  3.2km/h 92% 0in /  0.0mm 16 W/m2
07:45 46.8 °F /  8.2 °C 44.6 °F /  7 °C 29.8in /  1008.1hPa Calm   2mph /  3.2km/h 92% 0in /  0.0mm 21 W/m2
07:50 46.8 °F /  8.2 °C 44.6 °F /  7 °C 29.8in /  1008.1hPa South 0.9mph /  1.4km/h 2mph /  3.2km/h 92% 0in /  0.0mm 26 W/m2
07:55 46.8 °F /  8.2 °C 44.6 °F /  7 °C 29.8in /  1007.8hPa Calm   2mph /  3.2km/h 92% 0in /  0.0mm 28 W/m2
08:00 46.8 °F /  8.2 °C 44.6 °F /  7 °C 29.8in /  1007.8hPa Calm   1mph /  1.6km/h 92% 0in /  0.0mm 35 W/m2
08:05 46.8 °F /  8.2 °C 44.6 °F /  7 °C 29.8in /  1007.8hPa West 0.9mph /  1.4km/h 2mph /  3.2km/h 92% 0in /  0.0mm 37 W/m2
08:10 46.8 °F /  8.2 °C 44.6 °F /  7 °C 29.8in /  1007.8hPa Calm   2mph /  3.2km/h 92% 0in /  0.0mm 40 W/m2
08:15 46.9 °F /  8.3 °C 44.8 °F /  7.1 °C 29.8in /  1007.8hPa Calm   1mph /  1.6km/h 92% 0in /  0.0mm 44 W/m2
08:20 46.9 °F /  8.3 °C 44.8 °F /  7.1 °C 29.8in /  1007.8hPa WNW 2mph /  3.2km/h 3mph /  4.8km/h 92% 0in /  0.0mm 44 W/m2
08:25 46.9 °F /  8.3 °C 44.8 °F /  7.1 °C 29.8in /  1007.8hPa WSW 2mph /  3.2km/h 3mph /  4.8km/h 92% 0in /  0.0mm 46 W/m2
08:30 47.1 °F /  8.4 °C 45 °F /  7.2 °C 29.8in /  1007.8hPa Calm   2mph /  3.2km/h 92% 0in /  0.0mm 53 W/m2
08:35 47.1 °F /  8.4 °C 44.6 °F /  7 °C 29.8in /  1007.8hPa WNW 0.9mph /  1.4km/h 1mph /  1.6km/h 91% 0in /  0.0mm 60 W/m2
08:40 47.3 °F /  8.5 °C 44.8 °F /  7.1 °C 29.8in /  1007.8hPa SW 0.9mph /  1.4km/h 3mph /  4.8km/h 91% 0in /  0.0mm 69 W/m2
08:45 47.5 °F /  8.6 °C 45 °F /  7.2 °C 29.8in /  1007.8hPa WSW 2mph /  3.2km/h 4mph /  6.4km/h 91% 0in /  0.0mm 74 W/m2
08:50 47.5 °F /  8.6 °C 45 °F /  7.2 °C 29.8in /  1007.5hPa Calm   2mph /  3.2km/h 91% 0in /  0.0mm 72 W/m2
08:55 47.7 °F /  8.7 °C 45.1 °F /  7.3 °C 29.8in /  1007.5hPa West 2.9mph /  4.7km/h 6mph /  9.7km/h 91% 0in /  0.0mm 81 W/m2
09:00 47.8 °F /  8.8 °C 45.3 °F /  7.4 °C 29.8in /  1007.5hPa Calm   8mph /  12.9km/h 91% 0in /  0.0mm 84 W/m2
09:05 48 °F /  8.9 °C 45.1 °F /  7.3 °C 29.8in /  1007.5hPa Calm   7mph /  11.3km/h 90% 0in /  0.0mm 88 W/m2
09:10 48.4 °F /  9.1 °C 45.5 °F /  7.5 °C 29.7in /  1007.1hPa WNW 0.9mph /  1.4km/h 4mph /  6.4km/h 90% 0in /  0.0mm 95 W/m2
09:15 48.6 °F /  9.2 °C 45.7 °F /  7.6 °C 29.7in /  1007.1hPa WSW 0.9mph /  1.4km/h 5mph /  8km/h 90% 0in /  0.0mm 105 W/m2
09:20 48.9 °F /  9.4 °C 46 °F /  7.8 °C 29.7in /  1007.1hPa NNW 2mph /  3.2km/h 8mph /  12.9km/h 90% 0in /  0.0mm 111 W/m2
09:26 49.5 °F /  9.7 °C 46.4 °F /  8 °C 29.7in /  1007.1hPa SW 0.9mph /  1.4km/h 2mph /  3.2km/h 89% 0in /  0.0mm 236 W/m2
09:31 49.8 °F /  9.9 °C 46.4 °F /  8 °C 29.7in /  1007.1hPa NW 4mph /  6.4km/h 5mph /  8km/h 88% 0in /  0.0mm 202 W/m2
09:36 50.5 °F /  10.3 °C 47.1 °F /  8.4 °C 29.7in /  1007.1hPa WNW 0.9mph /  1.4km/h 6mph /  9.7km/h 88% 0in /  0.0mm 174 W/m2
09:41 51.3 °F /  10.7 °C 47.5 °F /  8.6 °C 29.7in /  1007.1hPa West 6.9mph /  11.1km/h 7mph /  11.3km/h 87% 0in /  0.0mm 162 W/m2
09:46 51.8 °F /  11 °C 47.5 °F /  8.6 °C 29.7in /  1007.1hPa Calm   6mph /  9.7km/h 85% 0in /  0.0mm 144 W/m2
09:51 52 °F /  11.1 °C 47.3 °F /  8.5 °C 29.7in /  1007.1hPa ENE 2.9mph /  4.7km/h 9mph /  14.5km/h 84% 0in /  0.0mm 169 W/m2
09:56 52 °F /  11.1 °C 47.3 °F /  8.5 °C 29.7in /  1007.1hPa WNW 2mph /  3.2km/h 3mph /  4.8km/h 84% 0in /  0.0mm 174 W/m2
10:01 52 °F /  11.1 °C 47.3 °F /  8.5 °C 29.7in /  1007.1hPa NNE 4mph /  6.4km/h 9mph /  14.5km/h 84% 0in /  0.0mm 178 W/m2
10:06 52 °F /  11.1 °C 46.9 °F /  8.3 °C 29.7in /  1006.8hPa ESE 0.9mph /  1.4km/h 4mph /  6.4km/h 83% 0in /  0.0mm 178 W/m2
10:11 52 °F /  11.1 °C 47.3 °F /  8.5 °C 29.7in /  1007.1hPa WSW 4.9mph /  7.9km/h 9mph /  14.5km/h 84% 0in /  0.0mm 188 W/m2
10:16 51.8 °F /  11 °C 47.1 °F /  8.4 °C 29.7in /  1006.8hPa WSW 4mph /  6.4km/h 7mph /  11.3km/h 84% 0in /  0.0mm 153 W/m2
10:21 51.6 °F /  10.9 °C 46.9 °F /  8.3 °C 29.7in /  1006.8hPa NW 2.9mph /  4.7km/h 5mph /  8km/h 84% 0in /  0.0mm 139 W/m2
10:26 51.6 °F /  10.9 °C 46.9 °F /  8.3 °C 29.7in /  1006.8hPa West 2.9mph /  4.7km/h 5mph /  8km/h 84% 0in /  0.0mm 146 W/m2
10:31 51.8 °F /  11 °C 47.1 °F /  8.4 °C 29.7in /  1006.8hPa NNW 2mph /  3.2km/h 4mph /  6.4km/h 84% 0in /  0.0mm 141 W/m2
10:36 52 °F /  11.1 °C 47.3 °F /  8.5 °C 29.7in /  1006.8hPa WNW 2.9mph /  4.7km/h 4mph /  6.4km/h 84% 0in /  0.0mm 123 W/m2
10:41 51.8 °F /  11 °C 47.5 °F /  8.6 °C 29.7in /  1006.8hPa NNE 2mph /  3.2km/h 7mph /  11.3km/h 85% 0in /  0.0mm 125 W/m2
10:46 51.8 °F /  11 °C 47.5 °F /  8.6 °C 29.7in /  1006.8hPa WSW 0.9mph /  1.4km/h 6mph /  9.7km/h 85% 0in /  0.0mm 125 W/m2
10:51 52 °F /  11.1 °C 47.7 °F /  8.7 °C 29.7in /  1006.8hPa NW 2.9mph /  4.7km/h 9mph /  14.5km/h 85% 0in /  0.0mm 123 W/m2
10:56 52 °F /  11.1 °C 47.7 °F /  8.7 °C 29.7in /  1006.8hPa Calm   2mph /  3.2km/h 85% 0in /  0.0mm 146 W/m2
11:01 52 °F /  11.1 °C 47.8 °F /  8.8 °C 29.7in /  1006.4hPa WNW 2.9mph /  4.7km/h 4mph /  6.4km/h 86% 0in /  0.0mm 158 W/m2
11:06 52.2 °F /  11.2 °C 48 °F /  8.9 °C 29.7in /  1006.4hPa WSW 2.9mph /  4.7km/h 4mph /  6.4km/h 86% 0in /  0.0mm 197 W/m2
11:11 52.3 °F /  11.3 °C 48 °F /  8.9 °C 29.7in /  1006.4hPa WNW 2.9mph /  4.7km/h 7mph /  11.3km/h 85% 0in /  0.0mm 206 W/m2
11:16 52.3 °F /  11.3 °C 48.2 °F /  9 °C 29.7in /  1006.4hPa SW 2.9mph /  4.7km/h 6mph /  9.7km/h 86% 0in /  0.0mm 174 W/m2
11:21 52.5 °F /  11.4 °C 48.2 °F /  9 °C 29.7in /  1006.4hPa NNW 0.9mph /  1.4km/h 4mph /  6.4km/h 85% 0in /  0.0mm 176 W/m2
11:26 52.9 °F /  11.6 °C 48.6 °F /  9.2 °C 29.7in /  1006.4hPa WNW 4mph /  6.4km/h 6mph /  9.7km/h 85% 0in /  0.0mm 174 W/m2
11:31 53.1 °F /  11.7 °C 48 °F /  8.9 °C 29.7in /  1006.4hPa NW 0.9mph /  1.4km/h 8mph /  12.9km/h 83% 0in /  0.0mm 148 W/m2
11:36 53.2 °F /  11.8 °C 47.5 °F /  8.6 °C 29.7in /  1006.1hPa WSW 4.9mph /  7.9km/h 13mph /  20.9km/h 81% 0in /  0.0mm 139 W/m2
11:41 53.2 °F /  11.8 °C 47.5 °F /  8.6 °C 29.7in /  1006.1hPa NE 0.9mph /  1.4km/h 2mph /  3.2km/h 81% 0in /  0.0mm 158 W/m2
11:46 53.4 °F /  11.9 °C 47.7 °F /  8.7 °C 29.7in /  1006.1hPa NNE 0.9mph /  1.4km/h 6mph /  9.7km/h 81% 0in /  0.0mm 151 W/m2
11:51 53.6 °F /  12 °C 47.8 °F /  8.8 °C 29.7in /  1006.1hPa WNW 2mph /  3.2km/h 6mph /  9.7km/h 81% 0in /  0.0mm 151 W/m2
11:56 53.8 °F /  12.1 °C 47.8 °F /  8.8 °C 29.7in /  1006.1hPa NNW 4mph /  6.4km/h 8mph /  12.9km/h 80% 0in /  0.0mm 146 W/m2
12:01 53.8 °F /  12.1 °C 47.8 °F /  8.8 °C 29.7in /  1006.1hPa West 2mph /  3.2km/h 4mph /  6.4km/h 80% 0in /  0.0mm 146 W/m2
12:06 54 °F /  12.2 °C 47.7 °F /  8.7 °C 29.7in /  1005.8hPa WNW 0.9mph /  1.4km/h 3mph /  4.8km/h 79% 0in /  0.0mm 125 W/m2
12:11 54.1 °F /  12.3 °C 47.5 °F /  8.6 °C 29.7in /  1005.8hPa NNW 2mph /  3.2km/h 6mph /  9.7km/h 78% 0in /  0.0mm 135 W/m2
12:16 54.1 °F /  12.3 °C 47.1 °F /  8.4 °C 29.7in /  1005.8hPa WNW 2mph /  3.2km/h 4mph /  6.4km/h 77% 0in /  0.0mm 169 W/m2
12:21 54.3 °F /  12.4 °C 47.3 °F /  8.5 °C 29.7in /  1005.8hPa WNW 0.9mph /  1.4km/h 5mph /  8km/h 77% 0in /  0.0mm 216 W/m2
12:26 54.7 °F /  12.6 °C 47.3 °F /  8.5 °C 29.7in /  1005.8hPa WNW 4.9mph /  7.9km/h 12mph /  19.3km/h 76% 0in /  0.0mm 248 W/m2
12:31 54.7 °F /  12.6 °C 47.3 °F /  8.5 °C 29.7in /  1005.4hPa NNW 0.9mph /  1.4km/h 3mph /  4.8km/h 76% 0in /  0.0mm 271 W/m2
12:36 54.9 °F /  12.7 °C 47.1 °F /  8.4 °C 29.7in /  1005.4hPa WNW 2.9mph /  4.7km/h 15mph /  24.1km/h 75% 0in /  0.0mm 308 W/m2
12:41 55.2 °F /  12.9 °C 47.5 °F /  8.6 °C 29.7in /  1005.4hPa South 4.9mph /  7.9km/h 8mph /  12.9km/h 75% 0in /  0.0mm 311 W/m2
12:46 55.4 °F /  13 °C 47.3 °F /  8.5 °C 29.7in /  1005.4hPa SSE 2mph /  3.2km/h 14mph /  22.5km/h 74% 0in /  0.0mm 264 W/m2
12:51 55.8 °F /  13.2 °C 47.7 °F /  8.7 °C 29.7in /  1005.1hPa WNW 8.1mph /  13km/h 8mph /  12.9km/h 74% 0in /  0.0mm 225 W/m2
12:56 55.8 °F /  13.2 °C 47.3 °F /  8.5 °C 29.7in /  1005.1hPa WNW 2mph /  3.2km/h 6mph /  9.7km/h 73% 0in /  0.0mm 227 W/m2
13:01 55.9 °F /  13.3 °C 47.5 °F /  8.6 °C 29.7in /  1005.1hPa West 6mph /  9.7km/h 7mph /  11.3km/h 73% 0in /  0.0mm 227 W/m2
13:06 56.1 °F /  13.4 °C 47.3 °F /  8.5 °C 29.7in /  1005.1hPa WNW 8.1mph /  13km/h 8mph /  12.9km/h 72% 0in /  0.0mm 255 W/m2
13:11 56.3 °F /  13.5 °C 46.9 °F /  8.3 °C 29.7in /  1005.1hPa NNW 2.9mph /  4.7km/h 6mph /  9.7km/h 71% 0in /  0.0mm 234 W/m2
13:16 56.5 °F /  13.6 °C 46.8 °F /  8.2 °C 29.7in /  1005.1hPa NNW 4mph /  6.4km/h 9mph /  14.5km/h 70% 0in /  0.0mm 207 W/m2
13:21 56.5 °F /  13.6 °C 46.8 °F /  8.2 °C 29.7in /  1004.7hPa North 0.9mph /  1.4km/h 6mph /  9.7km/h 70% 0in /  0.0mm 207 W/m2
13:26 56.5 °F /  13.6 °C 47.1 °F /  8.4 °C 29.7in /  1004.7hPa NW 0.9mph /  1.4km/h 2mph /  3.2km/h 71% 0in /  0.0mm 227 W/m2
13:31 56.7 °F /  13.7 °C 46.6 °F /  8.1 °C 29.7in /  1004.7hPa WNW 2mph /  3.2km/h 3mph /  4.8km/h 69% 0in /  0.0mm 241 W/m2
13:36 56.7 °F /  13.7 °C 46.2 °F /  7.9 °C 29.7in /  1004.7hPa WNW 2mph /  3.2km/h 8mph /  12.9km/h 68% 0in /  0.0mm 244 W/m2
13:41 56.7 °F /  13.7 °C 45.5 °F /  7.5 °C 29.7in /  1004.4hPa NW 2.9mph /  4.7km/h 9mph /  14.5km/h 66% 0in /  0.0mm 257 W/m2
13:46 56.7 °F /  13.7 °C 45.5 °F /  7.5 °C 29.7in /  1004.4hPa SW 4mph /  6.4km/h 9mph /  14.5km/h 66% 0in /  0.0mm 353 W/m2
13:51 56.8 °F /  13.8 °C 46 °F /  7.8 °C 29.7in /  1004.1hPa NNW 2.9mph /  4.7km/h 6mph /  9.7km/h 67% 0in /  0.0mm 304 W/m2
13:56 57.2 °F /  14 °C 45.9 °F /  7.7 °C 29.7in /  1004.1hPa NW 2mph /  3.2km/h 5mph /  8km/h 66% 0in /  0.0mm 316 W/m2
14:01 57.6 °F /  14.2 °C 46.8 °F /  8.2 °C 29.7in /  1004.1hPa WNW 2.9mph /  4.7km/h 9mph /  14.5km/h 67% 0in /  0.0mm 330 W/m2
14:06 57.7 °F /  14.3 °C 46 °F /  7.8 °C 29.7in /  1004.1hPa NNW 4.9mph /  7.9km/h 8mph /  12.9km/h 65% 0in /  0.0mm 336 W/m2
14:11 57.9 °F /  14.4 °C 46.2 °F /  7.9 °C 29.6in /  1003.7hPa SSW 2.9mph /  4.7km/h 9mph /  14.5km/h 65% 0in /  0.0mm 661 W/m2
14:16 58.6 °F /  14.8 °C 46 °F /  7.8 °C 29.6in /  1003.7hPa NW 2.9mph /  4.7km/h 10mph /  16.1km/h 63% 0in /  0.0mm 584 W/m2
14:21 59.4 °F /  15.2 °C 46.8 °F /  8.2 °C 29.6in /  1003.7hPa NNW 8.1mph /  13km/h 9mph /  14.5km/h 63% 0in /  0.0mm 468 W/m2
14:26 59.5 °F /  15.3 °C 46.6 °F /  8.1 °C 29.6in /  1003.7hPa WNW 6.9mph /  11.1km/h 11mph /  17.7km/h 62% 0in /  0.0mm 397 W/m2
14:31 59.2 °F /  15.1 °C 46.2 °F /  7.9 °C 29.6in /  1003.4hPa WNW 6.9mph /  11.1km/h 10mph /  16.1km/h 62% 0in /  0.0mm 299 W/m2
14:36 58.6 °F /  14.8 °C 46 °F /  7.8 °C 29.6in /  1003.4hPa SW 4mph /  6.4km/h 6mph /  9.7km/h 63% 0in /  0.0mm 274 W/m2
14:41 58.5 °F /  14.7 °C 45.9 °F /  7.7 °C 29.6in /  1003.0hPa NNW 8.1mph /  13km/h 9mph /  14.5km/h 63% 0in /  0.0mm 265 W/m2
14:46 58.5 °F /  14.7 °C 45.9 °F /  7.7 °C 29.6in /  1003.0hPa North 4mph /  6.4km/h 5mph /  8km/h 63% 0in /  0.0mm 281 W/m2
14:51 58.3 °F /  14.6 °C 45.7 °F /  7.6 °C 29.6in /  1003.0hPa SSE 4mph /  6.4km/h 7mph /  11.3km/h 63% 0in /  0.0mm 404 W/m2
14:56 58.5 °F /  14.7 °C 46.4 °F /  8 °C 29.6in /  1003.0hPa West 8.1mph /  13km/h 13mph /  20.9km/h 64% 0in /  0.0mm 381 W/m2
15:01 59 °F /  15 °C 46.4 °F /  8 °C 29.6in /  1003.0hPa South 8.1mph /  13km/h 8mph /  12.9km/h 63% 0in /  0.0mm 749 W/m2
15:06 59.4 °F /  15.2 °C 46.4 °F /  8 °C 29.6in /  1003.0hPa SSE 2mph /  3.2km/h 8mph /  12.9km/h 62% 0in /  0.0mm 260 W/m2
15:11 59.2 °F /  15.1 °C 46.6 °F /  8.1 °C 29.6in /  1002.7hPa North 4mph /  6.4km/h 9mph /  14.5km/h 63% 0in /  0.0mm 422 W/m2
15:16 59 °F /  15 °C 46.4 °F /  8 °C 29.6in /  1002.7hPa WNW 8.1mph /  13km/h 12mph /  19.3km/h 63% 0in /  0.0mm 251 W/m2
15:21 58.6 °F /  14.8 °C 46 °F /  7.8 °C 29.6in /  1002.7hPa West 6.9mph /  11.1km/h 10mph /  16.1km/h 63% 0in /  0.0mm 250 W/m2
15:26 58.6 °F /  14.8 °C 46 °F /  7.8 °C 29.6in /  1002.4hPa NNE 4mph /  6.4km/h 8mph /  12.9km/h 63% 0in /  0.0mm 223 W/m2
15:31 58.8 °F /  14.9 °C 46.2 °F /  7.9 °C 29.6in /  1002.4hPa NNW 2mph /  3.2km/h 9mph /  14.5km/h 63% 0in /  0.0mm 193 W/m2
15:36 58.6 °F /  14.8 °C 46 °F /  7.8 °C 29.6in /  1002.4hPa SSW 4mph /  6.4km/h 12mph /  19.3km/h 63% 0in /  0.0mm 176 W/m2
15:41 58.6 °F /  14.8 °C 45.7 °F /  7.6 °C 29.6in /  1002.0hPa NW 2.9mph /  4.7km/h 11mph /  17.7km/h 62% 0in /  0.0mm 146 W/m2
15:46 58.5 °F /  14.7 °C 45.9 °F /  7.7 °C 29.6in /  1002.0hPa NW 4mph /  6.4km/h 7mph /  11.3km/h 63% 0in /  0.0mm 139 W/m2
15:51 58.6 °F /  14.8 °C 45.7 °F /  7.6 °C 29.6in /  1002.0hPa North 0.9mph /  1.4km/h 8mph /  12.9km/h 62% 0in /  0.0mm 105 W/m2
15:56 58.5 °F /  14.7 °C 45.5 °F /  7.5 °C 29.6in /  1002.0hPa WNW 2mph /  3.2km/h 8mph /  12.9km/h 62% 0in /  0.0mm 95 W/m2
16:01 58.5 °F /  14.7 °C 45.5 °F /  7.5 °C 29.6in /  1002.0hPa NNW 0.9mph /  1.4km/h 4mph /  6.4km/h 62% 0in /  0.0mm 91 W/m2
16:06 58.5 °F /  14.7 °C 45.5 °F /  7.5 °C 29.6in /  1002.0hPa North 4.9mph /  7.9km/h 11mph /  17.7km/h 62% 0in /  0.0mm 74 W/m2
16:11 58.3 °F /  14.6 °C 45.3 °F /  7.4 °C 29.6in /  1002.0hPa North 2mph /  3.2km/h 8mph /  12.9km/h 62% 0in /  0.0mm 65 W/m2
16:16 58.3 °F /  14.6 °C 45.7 °F /  7.6 °C 29.6in /  1002.0hPa North 2.9mph /  4.7km/h 11mph /  17.7km/h 63% 0in /  0.0mm 40 W/m2
16:21 58.1 °F /  14.5 °C 45.5 °F /  7.5 °C 29.6in /  1002.0hPa West 2mph /  3.2km/h 7mph /  11.3km/h 63% 0in /  0.0mm 32 W/m2
16:26 57.7 °F /  14.3 °C 46.4 °F /  8 °C 29.6in /  1001.7hPa West 2mph /  3.2km/h 7mph /  11.3km/h 66% 0in /  0.0mm 25 W/m2
16:31 56.8 °F /  13.8 °C 46.8 °F /  8.2 °C 29.6in /  1002.0hPa WNW 8.1mph /  13km/h 9mph /  14.5km/h 69% 0.01in /  0.2mm 40 W/m2
16:36 55.9 °F /  13.3 °C 47.5 °F /  8.6 °C 29.6in /  1001.7hPa NW 2mph /  3.2km/h 7mph /  11.3km/h 73% 0.02in /  0.5mm 65 W/m2
16:41 55.2 °F /  12.9 °C 46.4 °F /  8 °C 29.6in /  1002.0hPa South 0.9mph /  1.4km/h 12mph /  19.3km/h 72% 0.02in /  0.5mm 69 W/m2
16:46 54.9 °F /  12.7 °C 47.1 °F /  8.4 °C 29.6in /  1002.0hPa North 0.9mph /  1.4km/h 5mph /  8km/h 75% 0.02in /  0.5mm 62 W/m2
16:51 54.5 °F /  12.5 °C 47.5 °F /  8.6 °C 29.6in /  1002.0hPa Calm   12mph /  19.3km/h 77% 0.02in /  0.5mm 54 W/m2
16:56 54.3 °F /  12.4 °C 47.7 °F /  8.7 °C 29.6in /  1002.0hPa Calm   1mph /  1.6km/h 78% 0.03in /  0.8mm 54 W/m2
17:01 54.1 °F /  12.3 °C 48 °F /  8.9 °C 29.6in /  1002.0hPa ENE 0.9mph /  1.4km/h 3mph /  4.8km/h 80% 0.04in /  1.0mm 54 W/m2
17:06 54 °F /  12.2 °C 48.6 °F /  9.2 °C 29.6in /  1002.0hPa ENE 2mph /  3.2km/h 2mph /  3.2km/h 82% 0.05in /  1.3mm 74 W/m2
17:11 53.8 °F /  12.1 °C 48.4 °F /  9.1 °C 29.6in /  1001.7hPa East 2mph /  3.2km/h 3mph /  4.8km/h 82% 0.05in /  1.3mm 86 W/m2
17:16 53.6 °F /  12 °C 48.6 °F /  9.2 °C 29.6in /  1001.7hPa Calm   2mph /  3.2km/h 83% 0.06in /  1.5mm 98 W/m2
17:21 53.4 °F /  11.9 °C 48.4 °F /  9.1 °C 29.6in /  1001.7hPa South 0.9mph /  1.4km/h 4mph /  6.4km/h 83% 0.06in /  1.5mm 86 W/m2
17:26 53.2 °F /  11.8 °C 48.6 °F /  9.2 °C 29.6in /  1001.7hPa WNW 2mph /  3.2km/h 4mph /  6.4km/h 84% 0.06in /  1.5mm 93 W/m2
17:31 53.1 °F /  11.7 °C 48.4 °F /  9.1 °C 29.6in /  1001.4hPa West 2mph /  3.2km/h 5mph /  8km/h 84% 0.06in /  1.5mm 111 W/m2
17:36 52.9 °F /  11.6 °C 48.6 °F /  9.2 °C 29.6in /  1001.4hPa West 0.9mph /  1.4km/h 2mph /  3.2km/h 85% 0.05in /  1.3mm 111 W/m2
17:41 52.9 °F /  11.6 °C 48.7 °F /  9.3 °C 29.6in /  1001.0hPa NW 2mph /  3.2km/h 5mph /  8km/h 86% 0.05in /  1.3mm 86 W/m2
17:46 52.7 °F /  11.5 °C 48.6 °F /  9.2 °C 29.6in /  1001.0hPa Calm   1mph /  1.6km/h 86% 0.05in /  1.3mm 56 W/m2
17:51 52.5 °F /  11.4 °C 48.4 °F /  9.1 °C 29.6in /  1001.0hPa ENE 2mph /  3.2km/h 4mph /  6.4km/h 86% 0.05in /  1.3mm 46 W/m2
17:56 52.5 °F /  11.4 °C 48.7 °F /  9.3 °C 29.6in /  1001.0hPa South 0.9mph /  1.4km/h 4mph /  6.4km/h 87% 0.04in /  1.0mm 39 W/m2
18:01 52.5 °F /  11.4 °C 48.7 °F /  9.3 °C 29.6in /  1000.7hPa WNW 2mph /  3.2km/h 8mph /  12.9km/h 87% 0.03in /  0.8mm 21 W/m2
18:06 52.3 °F /  11.3 °C 48.6 °F /  9.2 °C 29.6in /  1000.7hPa NNW 2mph /  3.2km/h 4mph /  6.4km/h 87% 0.03in /  0.8mm 12 W/m2
18:11 52.3 °F /  11.3 °C 48.6 °F /  9.2 °C 29.6in /  1000.7hPa North 2mph /  3.2km/h 8mph /  12.9km/h 87% 0.04in /  1.0mm 14 W/m2
18:16 52.2 °F /  11.2 °C 48.7 °F /  9.3 °C 29.6in /  1000.7hPa NNW 4.9mph /  7.9km/h 6mph /  9.7km/h 88% 0.04in /  1.0mm 19 W/m2
18:21 52.2 °F /  11.2 °C 48.7 °F /  9.3 °C 29.6in /  1000.7hPa NE 2mph /  3.2km/h 2mph /  3.2km/h 88% 0.05in /  1.3mm 21 W/m2
18:26 52.2 °F /  11.2 °C 49.1 °F /  9.5 °C 29.6in /  1000.7hPa NNW 2.9mph /  4.7km/h 8mph /  12.9km/h 89% 0.05in /  1.3mm 21 W/m2
18:31 52 °F /  11.1 °C 48.9 °F /  9.4 °C 29.6in /  1000.7hPa Calm   3mph /  4.8km/h 89% 0.05in /  1.3mm 14 W/m2
18:36 52 °F /  11.1 °C 48.9 °F /  9.4 °C 29.5in /  1000.3hPa NNW 2mph /  3.2km/h 5mph /  8km/h 89% 0.05in /  1.3mm 7 W/m2
18:41 51.6 °F /  10.9 °C 48.6 °F /  9.2 °C 29.5in /  1000.3hPa Calm   8mph /  12.9km/h 89% 0.05in /  1.3mm 11 W/m2
18:47 51.6 °F /  10.9 °C 48.7 °F /  9.3 °C 29.5in /  1000.3hPa NE 2mph /  3.2km/h 3mph /  4.8km/h 90% 0.06in /  1.5mm 16 W/m2
18:52 51.6 °F /  10.9 °C 48.7 °F /  9.3 °C 29.5in /  1000.3hPa NE 0.9mph /  1.4km/h 3mph /  4.8km/h 90% 0.06in /  1.5mm 11 W/m2
18:57 51.6 °F /  10.9 °C 48.7 °F /  9.3 °C 29.5in /  1000.3hPa ENE 0.9mph /  1.4km/h 5mph /  8km/h 90% 0.06in /  1.5mm 0 W/m2
19:02 51.4 °F /  10.8 °C 48.6 °F /  9.2 °C 29.5in /  1000.3hPa NE 2mph /  3.2km/h 10mph /  16.1km/h 90% 0.07in /  1.8mm 0 W/m2
19:07 51.4 °F /  10.8 °C 48.9 °F /  9.4 °C 29.5in /  1000.3hPa NW 2.9mph /  4.7km/h 7mph /  11.3km/h 91% 0.07in /  1.8mm 0 W/m2
19:12 51.4 °F /  10.8 °C 48.9 °F /  9.4 °C 29.5in /  1000.0hPa Calm   10mph /  16.1km/h 91% 0.06in /  1.5mm 0 W/m2
19:17 51.4 °F /  10.8 °C 48.9 °F /  9.4 °C 29.5in /  1000.0hPa NW 2mph /  3.2km/h 5mph /  8km/h 91% 0.06in /  1.5mm 0 W/m2
19:22 51.3 °F /  10.7 °C 48.7 °F /  9.3 °C 29.5in /  1000.0hPa North 2mph /  3.2km/h 6mph /  9.7km/h 91% 0.06in /  1.5mm 0 W/m2
19:27 51.3 °F /  10.7 °C 48.7 °F /  9.3 °C 29.5in /  1000.0hPa North 4.9mph /  7.9km/h 6mph /  9.7km/h 91% 0.06in /  1.5mm 0 W/m2
19:32 51.3 °F /  10.7 °C 48.7 °F /  9.3 °C 29.5in /  1000.0hPa ENE 2.9mph /  4.7km/h 5mph /  8km/h 91% 0.07in /  1.8mm 0 W/m2
19:37 51.3 °F /  10.7 °C 48.7 °F /  9.3 °C 29.5in /  1000.0hPa WNW 2.9mph /  4.7km/h 8mph /  12.9km/h 91% 0.07in /  1.8mm 0 W/m2
19:42 51.1 °F /  10.6 °C 48.6 °F /  9.2 °C 29.5in /  999.7hPa WNW 2mph /  3.2km/h 6mph /  9.7km/h 91% 0.08in /  2.0mm 0 W/m2
19:47 51.1 °F /  10.6 °C 48.9 °F /  9.4 °C 29.5in /  999.7hPa WNW 2mph /  3.2km/h 8mph /  12.9km/h 92% 0.08in /  2.0mm 0 W/m2
19:52 50.7 °F /  10.4 °C 48.6 °F /  9.2 °C 29.5in /  999.7hPa NNE 2.9mph /  4.7km/h 10mph /  16.1km/h 92% 0.09in /  2.3mm 0 W/m2
19:57 50.7 °F /  10.4 °C 48.6 °F /  9.2 °C 29.5in /  999.7hPa NW 4mph /  6.4km/h 5mph /  8km/h 92% 0.08in /  2.0mm 0 W/m2
20:02 50.7 °F /  10.4 °C 48.2 °F /  9 °C 29.5in /  999.7hPa ENE 0.9mph /  1.4km/h 5mph /  8km/h 91% 0.07in /  1.8mm 0 W/m2
20:07 50.5 °F /  10.3 °C 48.4 °F /  9.1 °C 29.5in /  999.7hPa NNW 2mph /  3.2km/h 6mph /  9.7km/h 92% 0.07in /  1.8mm 0 W/m2
20:12 50.5 °F /  10.3 °C 48.4 °F /  9.1 °C 29.5in /  999.7hPa NE 2mph /  3.2km/h 12mph /  19.3km/h 92% 0.07in /  1.8mm 0 W/m2
20:17 50.5 °F /  10.3 °C 48.4 °F /  9.1 °C 29.5in /  999.7hPa South 2mph /  3.2km/h 9mph /  14.5km/h 92% 0.07in /  1.8mm 0 W/m2
20:22 50.4 °F /  10.2 °C 48.2 °F /  9 °C 29.5in /  999.7hPa SW 0.9mph /  1.4km/h 12mph /  19.3km/h 92% 0.07in /  1.8mm 0 W/m2
20:27 50.4 °F /  10.2 °C 48.2 °F /  9 °C 29.5in /  999.3hPa WSW 4.9mph /  7.9km/h 10mph /  16.1km/h 92% 0.07in /  1.8mm 0 W/m2
20:32 50.4 °F /  10.2 °C 48.2 °F /  9 °C 29.5in /  999.3hPa WNW 2.9mph /  4.7km/h 14mph /  22.5km/h 92% 0.06in /  1.5mm 0 W/m2
20:37 50.4 °F /  10.2 °C 48.2 °F /  9 °C 29.5in /  999.3hPa NE 4mph /  6.4km/h 11mph /  17.7km/h 92% 0.06in /  1.5mm 0 W/m2
20:42 50.4 °F /  10.2 °C 48.2 °F /  9 °C 29.5in /  999.3hPa NW 8.1mph /  13km/h 14mph /  22.5km/h 92% 0.05in /  1.3mm 0 W/m2
20:47 50.4 °F /  10.2 °C 48.2 °F /  9 °C 29.5in /  999.3hPa NNW 4mph /  6.4km/h 10mph /  16.1km/h 92% 0.04in /  1.0mm 0 W/m2
20:52 50.4 °F /  10.2 °C 48.2 °F /  9 °C 29.5in /  999.0hPa SE 0.9mph /  1.4km/h 5mph /  8km/h 92% 0.04in /  1.0mm 0 W/m2
20:57 50.4 °F /  10.2 °C 48.2 °F /  9 °C 29.5in /  999.3hPa NNW 8.9mph /  14.3km/h 12mph /  19.3km/h 92% 0.04in /  1.0mm 0 W/m2
21:02 50.4 °F /  10.2 °C 48.2 °F /  9 °C 29.5in /  999.3hPa ENE 0.9mph /  1.4km/h 13mph /  20.9km/h 92% 0.04in /  1.0mm 0 W/m2
21:07 50.4 °F /  10.2 °C 48.2 °F /  9 °C 29.5in /  999.3hPa NW 10.1mph /  16.3km/h 10mph /  16.1km/h 92% 0.03in /  0.8mm 0 W/m2
21:12 50.4 °F /  10.2 °C 48.2 °F /  9 °C 29.5in /  999.3hPa NNE 2mph /  3.2km/h 13mph /  20.9km/h 92% 0.03in /  0.8mm 0 W/m2
21:17 50.4 °F /  10.2 °C 48.2 °F /  9 °C 29.5in /  999.3hPa West 2.9mph /  4.7km/h 7mph /  11.3km/h 92% 0.03in /  0.8mm 0 W/m2
21:22 50.4 °F /  10.2 °C 48.2 °F /  9 °C 29.5in /  999.3hPa NNW 2.9mph /  4.7km/h 11mph /  17.7km/h 92% 0.02in /  0.5mm 0 W/m2
21:27 50.4 °F /  10.2 °C 48.2 °F /  9 °C 29.5in /  999.3hPa NNE 4.9mph /  7.9km/h 5mph /  8km/h 92% 0.02in /  0.5mm 0 W/m2
21:32 50.4 °F /  10.2 °C 48.2 °F /  9 °C 29.5in /  999.0hPa ENE 2mph /  3.2km/h 6mph /  9.7km/h 92% 0.02in /  0.5mm 0 W/m2
21:37 50.4 °F /  10.2 °C 48.2 °F /  9 °C 29.5in /  999.3hPa WNW 2mph /  3.2km/h 8mph /  12.9km/h 92% 0.02in /  0.5mm 0 W/m2
21:42 50.4 °F /  10.2 °C 48.2 °F /  9 °C 29.5in /  999.0hPa West 2.9mph /  4.7km/h 5mph /  8km/h 92% 0.02in /  0.5mm 0 W/m2
21:47 50.4 °F /  10.2 °C 48.2 °F /  9 °C 29.5in /  999.0hPa NW 2mph /  3.2km/h 4mph /  6.4km/h 92% 0.02in /  0.5mm 0 W/m2
21:52 50.2 °F /  10.1 °C 48.2 °F /  9 °C 29.5in /  999.0hPa NNW 0.9mph /  1.4km/h 7mph /  11.3km/h 93% 0.02in /  0.5mm 0 W/m2
21:57 50.4 °F /  10.2 °C 48.4 °F /  9.1 °C 29.5in /  999.0hPa NW 4mph /  6.4km/h 4mph /  6.4km/h 93% 0.02in /  0.5mm 0 W/m2
22:02 50.4 °F /  10.2 °C 48.4 °F /  9.1 °C 29.5in /  999.0hPa NNW 2mph /  3.2km/h 7mph /  11.3km/h 93% 0.02in /  0.5mm 0 W/m2
22:07 50.4 °F /  10.2 °C 48.4 °F /  9.1 °C 29.5in /  999.0hPa NW 8.1mph /  13km/h 9mph /  14.5km/h 93% 0.02in /  0.5mm 0 W/m2
22:12 50.4 °F /  10.2 °C 48.4 °F /  9.1 °C 29.5in /  999.0hPa NNW 4.9mph /  7.9km/h 7mph /  11.3km/h 93% 0.02in /  0.5mm 0 W/m2
22:17 50.4 °F /  10.2 °C 48.4 °F /  9.1 °C 29.5in /  999.0hPa NW 2.9mph /  4.7km/h 4mph /  6.4km/h 93% 0.01in /  0.2mm 0 W/m2
22:22 50.4 °F /  10.2 °C 48.4 °F /  9.1 °C 29.5in /  998.6hPa North 0.9mph /  1.4km/h 9mph /  14.5km/h 93% 0.01in /  0.2mm 0 W/m2
22:27 50.4 °F /  10.2 °C 48.4 °F /  9.1 °C 29.5in /  998.6hPa WNW 0.9mph /  1.4km/h 2mph /  3.2km/h 93% 0.02in /  0.5mm 0 W/m2
22:32 50.4 °F /  10.2 °C 48.4 °F /  9.1 °C 29.5in /  998.6hPa Calm   5mph /  8km/h 93% 0.02in /  0.5mm 0 W/m2
22:37 50.4 °F /  10.2 °C 48.4 °F /  9.1 °C 29.5in /  998.6hPa NNW 2mph /  3.2km/h 6mph /  9.7km/h 93% 0.02in /  0.5mm 0 W/m2
22:42 50.4 °F /  10.2 °C 48.4 °F /  9.1 °C 29.5in /  998.6hPa Calm   3mph /  4.8km/h 93% 0.02in /  0.5mm 0 W/m2
22:47 50.4 °F /  10.2 °C 48.4 °F /  9.1 °C 29.5in /  998.6hPa SSE 2mph /  3.2km/h 4mph /  6.4km/h 93% 0.01in /  0.2mm 0 W/m2
22:52 50.5 °F /  10.3 °C 48.6 °F /  9.2 °C 29.5in /  998.6hPa NNW 2.9mph /  4.7km/h 5mph /  8km/h 93% 0.01in /  0.2mm 0 W/m2
22:57 50.5 °F /  10.3 °C 48.6 °F /  9.2 °C 29.5in /  998.6hPa WNW 0.9mph /  1.4km/h 4mph /  6.4km/h 93% 0.01in /  0.2mm 0 W/m2
23:02 50.5 °F /  10.3 °C 48.6 °F /  9.2 °C 29.5in /  998.6hPa NW 2mph /  3.2km/h 2mph /  3.2km/h 93% 0.02in /  0.5mm 0 W/m2
23:07 50.5 °F /  10.3 °C 48.6 °F /  9.2 °C 29.5in /  998.6hPa WSW 2mph /  3.2km/h 2mph /  3.2km/h 93% 0.02in /  0.5mm 0 W/m2
23:12 50.5 °F /  10.3 °C 48.6 °F /  9.2 °C 29.5in /  998.6hPa NW 0.9mph /  1.4km/h 3mph /  4.8km/h 93% 0.04in /  1.0mm 0 W/m2
23:17 50.5 °F /  10.3 °C 48.6 °F /  9.2 °C 29.5in /  998.6hPa West 8.1mph /  13km/h 18mph /  29km/h 93% 0.05in /  1.3mm 0 W/m2
23:22 50.5 °F /  10.3 °C 48.6 °F /  9.2 °C 29.5in /  998.6hPa West 2.9mph /  4.7km/h 8mph /  12.9km/h 93% 0.05in /  1.3mm 0 W/m2
23:27 50.5 °F /  10.3 °C 48.6 °F /  9.2 °C 29.5in /  998.6hPa SW 10.1mph /  16.3km/h 13mph /  20.9km/h 93% 0.04in /  1.0mm 0 W/m2
23:32 50.5 °F /  10.3 °C 48.6 °F /  9.2 °C 29.5in /  998.6hPa WSW 4.9mph /  7.9km/h 9mph /  14.5km/h 93% 0.04in /  1.0mm 0 W/m2
23:37 50.5 °F /  10.3 °C 48.6 °F /  9.2 °C 29.5in /  998.6hPa West 2mph /  3.2km/h 11mph /  17.7km/h 93% 0.04in /  1.0mm 0 W/m2
23:42 50.4 °F /  10.2 °C 48.2 °F /  9 °C 29.5in /  998.6hPa West 2mph /  3.2km/h 6mph /  9.7km/h 92% 0.04in /  1.0mm 0 W/m2
23:47 50.4 °F /  10.2 °C 48.4 °F /  9.1 °C 29.5in /  998.3hPa WSW 2mph /  3.2km/h 9mph /  14.5km/h 93% 0.04in /  1.0mm 0 W/m2
23:52 50.4 °F /  10.2 °C 48.2 °F /  9 °C 29.5in /  998.3hPa WNW 6mph /  9.7km/h 12mph /  19.3km/h 92% 0.04in /  1.0mm 0 W/m2
23:57 50.2 °F /  10.1 °C 48 °F /  8.9 °C 29.5in /  998.3hPa West 2mph /  3.2km/h 7mph /  11.3km/h 92% 0.04in /  1.0mm 0 W/m2
Juneau County Weather
Compliments of Weather Underground - 4 mb